Terminal Aerodrome Forecast
Issued by NWS Huntsville, AL

Home | Current Version | Previous Version | Text Only | Print | Product List | Glossary On
Versions: 1 2 3 4 5 6 7 8 9 10 11 12 13 14 15 16 17 18 19 20 21 22 23 24 25 26 27 28 29 30 31 32
000
FTUS44 KHUN 050520
TAFMSL
TAF
KMSL 050520Z 0506/0606 36010G18KT P6SM -RA OVC012
      TEMPO 0506/0509 5SM -FZRAPL BR BKN008 OVC010
     FM050900 36015G25KT 5SM FZRA BR OVC009
     FM051400 36012G22KT 5SM -PLSN OVC009
     FM051600 02012G20KT 5SM -SN OVC015
     FM051900 36012G20KT P6SM OVC020=

USA.gov is the U.S. government's official web portal to all federal, state and local government web resources and services.